createdAt,value
2023-06-17T00:02:46.753Z,15.35
2023-06-17T00:05:53.823Z,14.55
2023-06-17T00:09:01.298Z,14.35
2023-06-17T00:12:09.172Z,14.60
2023-06-17T00:15:22.838Z,13.55
2023-06-17T00:18:34.020Z,15.43
2023-06-17T00:21:39.512Z,14.77
2023-06-17T00:24:45.029Z,14.48
2023-06-17T00:27:52.649Z,15.07
2023-06-17T00:30:59.745Z,16.50
2023-06-17T00:34:07.544Z,17.88
2023-06-17T00:37:13.093Z,15.30
2023-06-17T00:40:22.331Z,16.45
2023-06-17T00:43:32.013Z,15.80
2023-06-17T00:46:39.889Z,15.80
2023-06-17T00:49:50.286Z,15.82
2023-06-17T00:52:56.559Z,16.85
2023-06-17T00:56:02.646Z,16.63
2023-06-17T00:59:08.071Z,15.10
2023-06-17T01:02:14.855Z,15.65
2023-06-17T01:05:24.393Z,14.43
2023-06-17T01:08:35.348Z,16.13
2023-06-17T01:11:42.426Z,16.02
2023-06-17T01:14:51.772Z,14.13
2023-06-17T01:17:57.307Z,14.27
2023-06-17T01:21:07.573Z,16.15
2023-06-17T01:24:16.750Z,17.33
2023-06-17T01:27:25.864Z,19.00
2023-06-17T01:30:35.734Z,18.25
2023-06-17T01:33:42.180Z,21.48
2023-06-17T01:36:47.852Z,19.48
2023-06-17T01:39:57.384Z,18.40
2023-06-17T01:43:05.879Z,18.90
2023-06-17T01:46:11.627Z,18.88
2023-06-17T01:49:19.068Z,17.48
2023-06-17T01:52:30.338Z,17.48
2023-06-17T01:55:38.021Z,17.23
2023-06-17T01:58:46.140Z,21.17
2023-06-17T02:01:51.328Z,19.38
2023-06-17T02:04:57.342Z,20.10
2023-06-17T02:08:06.049Z,20.27
2023-06-17T02:11:11.926Z,24.55
2023-06-17T02:14:19.645Z,19.90
2023-06-17T02:17:28.632Z,22.23
2023-06-17T02:20:34.022Z,18.70
2023-06-17T02:23:39.536Z,25.05
2023-06-17T02:26:45.068Z,25.25
2023-06-17T02:29:56.438Z,30.08
2023-06-17T02:33:02.295Z,22.35
2023-06-17T02:36:08.150Z,18.58
2023-06-17T02:39:15.708Z,17.73
2023-06-17T02:42:21.276Z,20.42
2023-06-17T02:45:31.326Z,22.35
2023-06-17T02:48:40.014Z,19.67
2023-06-17T02:51:49.158Z,17.65
2023-06-17T02:54:54.773Z,15.07
2023-06-17T02:58:02.952Z,16.25
2023-06-17T03:01:14.213Z,17.48
2023-06-17T03:04:21.942Z,16.42
2023-06-17T03:07:28.979Z,16.23
2023-06-17T03:10:34.237Z,20.58
2023-06-17T03:13:40.357Z,15.02
2023-06-17T03:16:49.508Z,17.15
2023-06-17T03:19:55.280Z,13.80
2023-06-17T03:23:03.921Z,15.10
2023-06-17T03:26:10.713Z,13.75
2023-06-17T03:29:17.532Z,19.08
2023-06-17T03:32:25.694Z,20.15
2023-06-17T03:35:32.492Z,17.70
2023-06-17T03:38:37.977Z,20.27
2023-06-17T03:41:43.085Z,17.13
2023-06-17T03:44:49.551Z,15.02
2023-06-17T03:47:57.843Z,12.93
2023-06-17T03:51:03.813Z,13.60
2023-06-17T03:54:09.012Z,13.02
2023-06-17T03:57:14.441Z,13.05
2023-06-17T04:00:24.043Z,13.93
2023-06-17T04:03:32.303Z,14.05
2023-06-17T04:06:38.069Z,13.93
2023-06-17T04:09:58.102Z,13.48
2023-06-17T04:13:09.207Z,14.48
2023-06-17T04:16:18.913Z,17.73
2023-06-17T04:19:28.615Z,16.92
2023-06-17T04:22:36.057Z,15.55
2023-06-17T04:25:41.992Z,16.60
2023-06-17T04:28:52.337Z,16.58
2023-06-17T04:32:00.408Z,14.20
2023-06-17T04:35:10.509Z,14.52
2023-06-17T04:38:16.654Z,15.85
2023-06-17T04:41:24.607Z,14.75
2023-06-17T04:44:32.843Z,13.43
2023-06-17T04:47:39.800Z,12.95
2023-06-17T04:50:50.144Z,12.55
2023-06-17T04:53:56.444Z,13.63
2023-06-17T04:57:04.097Z,14.07
2023-06-17T05:00:11.703Z,13.45
2023-06-17T05:03:16.842Z,14.75
2023-06-17T05:06:25.996Z,15.52
2023-06-17T05:09:32.052Z,14.73
2023-06-17T05:12:38.386Z,13.48
2023-06-17T05:15:50.220Z,15.40
2023-06-17T05:18:57.165Z,13.10
2023-06-17T05:22:04.812Z,14.45
2023-06-17T05:25:10.854Z,11.88
2023-06-17T05:28:16.441Z,14.07
2023-06-17T05:31:24.837Z,12.25
2023-06-17T05:34:30.079Z,11.45
2023-06-17T05:37:38.128Z,11.63
2023-06-17T05:40:45.359Z,11.02
2023-06-17T05:43:52.361Z,11.73
2023-06-17T05:46:58.669Z,11.60
2023-06-17T05:50:04.098Z,10.48
2023-06-17T05:53:16.788Z,11.45
2023-06-17T05:56:22.621Z,10.88
2023-06-17T05:59:30.334Z,10.63
2023-06-17T06:02:38.235Z,12.23
2023-06-17T06:05:43.347Z,12.38
2023-06-17T06:08:52.172Z,11.52
2023-06-17T06:11:59.197Z,10.70
2023-06-17T06:15:04.634Z,10.52
2023-06-17T06:18:09.824Z,10.98
2023-06-17T06:21:16.635Z,12.18
2023-06-17T06:24:26.486Z,11.38
2023-06-17T06:27:40.112Z,11.00
2023-06-17T06:30:46.169Z,12.55
2023-06-17T06:33:51.802Z,13.40
2023-06-17T06:36:57.961Z,10.90
2023-06-17T06:40:07.601Z,13.23
2023-06-17T06:43:12.718Z,13.25
2023-06-17T06:46:18.399Z,10.98
2023-06-17T06:49:25.537Z,9.80
2023-06-17T06:52:31.144Z,10.73
2023-06-17T06:55:38.875Z,10.35
2023-06-17T06:58:44.605Z,10.65
2023-06-17T07:01:51.025Z,10.32
2023-06-17T07:04:56.765Z,10.50
2023-06-17T07:08:01.895Z,10.35
2023-06-17T07:11:10.162Z,11.25
2023-06-17T07:14:15.555Z,10.68
2023-06-17T07:17:22.324Z,9.75
2023-06-17T07:23:40.318Z,11.25
2023-06-17T07:26:48.832Z,11.52
2023-06-17T07:29:56.934Z,14.15
2023-06-17T07:33:04.766Z,12.82
2023-06-17T07:36:13.040Z,10.98
2023-06-17T07:39:20.095Z,12.48
2023-06-17T07:42:28.344Z,14.50
2023-06-17T07:45:36.379Z,16.13
2023-06-17T07:48:41.851Z,14.45
2023-06-17T07:51:48.200Z,13.68
2023-06-17T07:54:55.468Z,12.80
2023-06-17T07:58:03.149Z,14.40
2023-06-17T08:01:08.728Z,14.23
2023-06-17T08:04:13.968Z,13.68
2023-06-17T08:07:21.529Z,14.35
2023-06-17T08:10:26.635Z,14.63
2023-06-17T08:13:34.702Z,15.40
2023-06-17T08:16:39.746Z,12.50
2023-06-17T08:19:45.453Z,14.43
2023-06-17T08:22:51.222Z,14.43
2023-06-17T08:25:57.930Z,15.23
2023-06-17T08:29:05.598Z,16.08
2023-06-17T08:32:11.329Z,13.57
2023-06-17T08:35:16.334Z,13.60
2023-06-17T08:38:21.717Z,13.35
2023-06-17T08:41:28.685Z,10.38
2023-06-17T08:44:37.763Z,9.50
2023-06-17T08:47:43.165Z,10.75
2023-06-17T08:50:50.479Z,12.18
2023-06-17T08:53:55.990Z,11.65
2023-06-17T08:57:01.387Z,11.98
2023-06-17T09:00:12.380Z,10.70
2023-06-17T09:03:20.578Z,10.70
2023-06-17T09:06:26.632Z,12.13
2023-06-17T09:09:32.461Z,15.07
2023-06-17T09:12:41.706Z,13.93
2023-06-17T09:15:49.973Z,16.15
2023-06-17T09:18:57.524Z,16.98
2023-06-17T09:22:09.483Z,15.10
2023-06-17T09:25:15.826Z,14.07
2023-06-17T09:28:21.380Z,19.75
2023-06-17T09:31:30.054Z,24.63
2023-06-17T09:34:37.238Z,12.13
2023-06-17T09:37:57.982Z,15.30
2023-06-17T09:41:08.700Z,12.60
2023-06-17T09:44:15.376Z,13.05
2023-06-17T09:47:25.609Z,11.88
2023-06-17T09:50:31.604Z,10.75
2023-06-17T09:53:38.554Z,10.68
2023-06-17T09:56:45.061Z,10.93
2023-06-17T09:59:51.754Z,17.40
2023-06-17T10:03:01.378Z,10.90
2023-06-17T10:06:08.403Z,9.30
2023-06-17T10:09:15.084Z,9.50
2023-06-17T10:12:21.194Z,9.02
2023-06-17T10:15:27.193Z,9.70
2023-06-17T10:18:37.880Z,8.90
2023-06-17T10:21:45.193Z,8.80
2023-06-17T10:24:51.955Z,8.40
2023-06-17T10:27:57.763Z,9.25
2023-06-17T10:31:05.790Z,7.60
2023-06-17T10:34:18.136Z,8.63
2023-06-17T10:37:33.837Z,8.82
2023-06-17T10:40:45.599Z,8.82
2023-06-17T10:43:51.726Z,8.00
2023-06-17T10:46:57.256Z,7.65
2023-06-17T10:50:09.133Z,8.05
2023-06-17T10:53:18.935Z,7.10
2023-06-17T10:56:24.568Z,6.43
2023-06-17T10:59:38.734Z,7.88
2023-06-17T11:02:46.481Z,8.55
2023-06-17T11:05:55.498Z,8.02
2023-06-17T11:09:01.836Z,9.20
2023-06-17T11:12:09.201Z,7.75
2023-06-17T11:15:18.727Z,8.40
2023-06-17T11:18:24.951Z,7.63
2023-06-17T11:21:33.572Z,7.45
2023-06-17T11:24:39.793Z,7.40
2023-06-17T11:27:47.827Z,6.80
2023-06-17T11:30:55.053Z,5.50
2023-06-17T11:34:02.372Z,5.82
2023-06-17T11:37:13.255Z,5.22
2023-06-17T11:40:28.002Z,5.47
2023-06-17T11:43:33.234Z,5.80
2023-06-17T11:46:40.248Z,4.90
2023-06-17T11:49:46.358Z,5.13
2023-06-17T11:53:04.295Z,5.30
2023-06-17T11:56:10.584Z,5.40
2023-06-17T11:59:16.821Z,5.57
2023-06-17T12:02:24.383Z,5.10
2023-06-17T12:05:30.866Z,5.30
2023-06-17T12:08:39.888Z,5.70
2023-06-17T12:11:46.239Z,5.40
2023-06-17T12:14:51.779Z,5.10
2023-06-17T12:17:59.849Z,5.65
2023-06-17T12:21:05.786Z,5.55
2023-06-17T12:24:16.073Z,5.78
2023-06-17T12:27:21.178Z,5.55
2023-06-17T12:30:28.721Z,5.82
2023-06-17T12:33:37.142Z,5.45
2023-06-17T12:36:43.372Z,5.55
2023-06-17T12:39:52.081Z,5.40
2023-06-17T12:42:58.073Z,5.68
2023-06-17T12:46:03.919Z,5.47
2023-06-17T12:49:10.643Z,6.75
2023-06-17T12:52:25.163Z,5.35
2023-06-17T12:55:36.872Z,6.30
2023-06-17T12:58:42.346Z,5.82
2023-06-17T13:01:48.574Z,6.10
2023-06-17T13:04:59.003Z,5.03
2023-06-17T13:08:09.389Z,5.45
2023-06-17T13:11:21.937Z,5.47
2023-06-17T13:14:31.070Z,5.35
2023-06-17T13:17:42.800Z,5.78
2023-06-17T13:20:48.878Z,4.95
2023-06-17T13:23:54.765Z,5.38
2023-06-17T13:27:05.048Z,5.35
2023-06-17T13:30:14.480Z,5.10
2023-06-17T13:33:23.697Z,5.20
2023-06-17T13:36:30.365Z,5.07
2023-06-17T13:39:37.778Z,5.78
2023-06-17T13:42:48.861Z,5.43
2023-06-17T13:49:04.833Z,5.82
2023-06-17T13:52:12.425Z,5.25
2023-06-17T13:55:21.493Z,5.35
2023-06-17T13:58:33.423Z,6.38
2023-06-17T14:01:39.161Z,5.82
2023-06-17T14:04:45.941Z,5.45
2023-06-17T14:07:57.678Z,4.88
2023-06-17T14:11:06.758Z,5.70
2023-06-17T14:14:17.588Z,5.20
2023-06-17T14:17:26.611Z,4.40
2023-06-17T14:20:32.680Z,4.80
2023-06-17T14:23:39.793Z,4.28
2023-06-17T14:26:46.820Z,5.18
2023-06-17T14:29:58.127Z,4.80
2023-06-17T14:33:06.910Z,4.22
2023-06-17T14:36:14.165Z,4.25
2023-06-17T14:39:19.777Z,4.53
2023-06-17T14:42:29.189Z,3.95
2023-06-17T14:45:39.180Z,3.63
2023-06-17T14:48:47.553Z,3.63
2023-06-17T14:51:57.194Z,3.85
2023-06-17T14:55:07.807Z,3.70
2023-06-17T14:58:14.388Z,3.78
2023-06-17T15:01:28.759Z,4.38
2023-06-17T15:04:36.358Z,3.67
2023-06-17T15:07:47.053Z,4.88
2023-06-17T15:10:52.665Z,5.38
2023-06-17T15:13:59.550Z,5.47
2023-06-17T15:17:10.160Z,6.68
2023-06-17T15:20:20.807Z,6.57
2023-06-17T15:23:28.623Z,7.30
2023-06-17T15:26:39.095Z,5.88
2023-06-17T15:29:45.968Z,7.05
2023-06-17T15:32:56.706Z,6.80
2023-06-17T15:36:01.890Z,7.07
2023-06-17T15:39:19.686Z,6.35
2023-06-17T15:42:26.224Z,6.97
2023-06-17T15:45:34.323Z,6.20
2023-06-17T15:48:42.544Z,7.55
2023-06-17T15:51:49.466Z,6.90
2023-06-17T15:54:57.996Z,6.55
2023-06-17T15:58:04.860Z,7.53
2023-06-17T16:01:11.617Z,7.30
2023-06-17T16:04:39.461Z,6.68
2023-06-17T16:07:52.193Z,7.15
2023-06-17T16:11:02.383Z,7.85
2023-06-17T16:14:09.401Z,7.72
2023-06-17T16:17:18.335Z,6.85
2023-06-17T16:20:24.152Z,6.45
2023-06-17T16:23:34.216Z,7.47
2023-06-17T16:26:40.014Z,7.57
2023-06-17T16:29:49.486Z,6.90
2023-06-17T16:33:00.050Z,7.55
2023-06-17T16:36:06.148Z,8.23
2023-06-17T16:39:18.407Z,6.93
2023-06-17T16:42:29.822Z,7.20
2023-06-17T16:45:35.674Z,6.10
2023-06-17T16:48:44.857Z,6.15
2023-06-17T16:52:03.746Z,6.88
2023-06-17T16:55:14.711Z,6.25
2023-06-17T16:58:23.847Z,5.70
2023-06-17T17:01:42.203Z,5.53
2023-06-17T17:04:50.242Z,6.32
2023-06-17T17:07:58.953Z,6.50
2023-06-17T17:11:14.073Z,6.85
2023-06-17T17:14:25.740Z,6.82
2023-06-17T17:17:31.214Z,8.48
2023-06-17T17:20:37.718Z,7.55
2023-06-17T17:23:49.657Z,7.53
2023-06-17T17:27:00.843Z,8.02
2023-06-17T17:30:08.599Z,7.65
2023-06-17T17:33:15.022Z,7.50
2023-06-17T17:36:23.681Z,7.78
2023-06-17T17:39:35.466Z,7.70
2023-06-17T17:42:45.377Z,7.32
2023-06-17T17:46:00.393Z,7.72
2023-06-17T17:52:15.289Z,7.82
2023-06-17T17:55:22.390Z,7.95
2023-06-17T17:58:31.685Z,8.35
2023-06-17T18:01:39.983Z,9.52
2023-06-17T18:04:48.647Z,9.65
2023-06-17T18:07:54.997Z,9.13
2023-06-17T18:11:05.293Z,10.20
2023-06-17T18:14:14.419Z,9.65
2023-06-17T18:20:32.464Z,9.63
2023-06-17T18:23:40.646Z,9.43
2023-06-17T18:26:48.018Z,8.93
2023-06-17T18:30:00.678Z,9.23
2023-06-17T18:33:09.103Z,9.98
2023-06-17T18:36:16.313Z,11.60
2023-06-17T18:39:23.482Z,11.25
2023-06-17T18:42:30.259Z,10.82
2023-06-17T18:45:40.640Z,10.45
2023-06-17T18:48:51.096Z,12.40
2023-06-17T18:51:59.809Z,12.52
2023-06-17T18:55:11.609Z,12.40
2023-06-17T18:58:21.898Z,12.70
2023-06-17T19:01:33.525Z,12.80
2023-06-17T19:04:40.266Z,13.87
2023-06-17T19:07:49.039Z,11.60
2023-06-17T19:10:59.086Z,13.15
2023-06-17T19:14:06.759Z,14.60
2023-06-17T19:17:14.873Z,12.35
2023-06-17T19:20:21.223Z,12.93
2023-06-17T19:23:34.416Z,13.60
2023-06-17T19:26:40.761Z,13.80
2023-06-17T19:29:47.143Z,14.27
2023-06-17T19:32:56.215Z,14.13
2023-06-17T19:36:01.830Z,14.52
2023-06-17T19:39:10.284Z,13.80
2023-06-17T19:42:24.440Z,14.30
2023-06-17T19:45:38.375Z,14.40
2023-06-17T19:48:47.136Z,15.88
2023-06-17T19:51:54.757Z,14.52
2023-06-17T19:55:07.912Z,14.98
2023-06-17T19:58:13.919Z,16.20
2023-06-17T20:01:21.576Z,16.15
2023-06-17T20:04:30.513Z,15.55
2023-06-17T20:07:35.771Z,16.67
2023-06-17T20:10:51.942Z,16.23
2023-06-17T20:13:57.424Z,16.90
2023-06-17T20:17:06.712Z,20.52
2023-06-17T20:20:17.857Z,17.63
2023-06-17T20:23:25.036Z,18.50
2023-06-17T20:26:30.443Z,15.55
2023-06-17T20:29:42.948Z,16.35
2023-06-17T20:32:48.875Z,20.50
2023-06-17T20:36:01.226Z,18.35
2023-06-17T20:39:11.368Z,18.23
2023-06-17T20:42:17.815Z,16.25
2023-06-17T20:45:24.968Z,17.08
2023-06-17T20:48:32.510Z,16.17
2023-06-17T20:51:49.104Z,15.13
2023-06-17T20:55:07.699Z,14.57
2023-06-17T20:58:22.132Z,17.15
2023-06-17T21:01:29.555Z,14.65
2023-06-17T21:04:36.139Z,16.25
2023-06-17T21:07:45.415Z,15.15
2023-06-17T21:10:51.350Z,15.98
2023-06-17T21:13:56.923Z,15.70
2023-06-17T21:17:06.169Z,14.10
2023-06-17T21:20:12.662Z,15.93
2023-06-17T21:23:21.683Z,14.23
2023-06-17T21:26:37.154Z,14.02
2023-06-17T21:29:43.968Z,14.40
2023-06-17T21:32:50.186Z,13.63
2023-06-17T21:35:55.614Z,13.43
2023-06-17T21:39:07.851Z,13.90
2023-06-17T21:42:18.103Z,13.17
2023-06-17T21:45:25.105Z,12.75
2023-06-17T21:48:36.782Z,17.05
2023-06-17T21:51:44.398Z,15.18
2023-06-17T21:54:55.114Z,19.90
2023-06-17T21:58:01.336Z,17.88
2023-06-17T22:01:07.558Z,16.60
2023-06-17T22:04:18.379Z,16.25
2023-06-17T22:07:25.403Z,16.40
2023-06-17T22:10:34.261Z,15.88
2023-06-17T22:13:40.134Z,16.75
2023-06-17T22:16:47.711Z,15.32
2023-06-17T22:19:53.163Z,15.20
2023-06-17T22:22:59.236Z,14.90
2023-06-17T22:26:10.703Z,15.20
2023-06-17T22:29:18.865Z,16.10
2023-06-17T22:32:28.342Z,15.35
2023-06-17T22:35:41.524Z,14.68
2023-06-17T22:38:47.107Z,12.02
2023-06-17T22:41:58.011Z,12.20
2023-06-17T22:45:07.101Z,11.15
2023-06-17T22:48:14.423Z,11.25
2023-06-17T22:51:21.368Z,10.95
2023-06-17T22:54:36.421Z,11.48
2023-06-17T22:57:44.979Z,14.77
2023-06-17T23:00:52.905Z,17.25
2023-06-17T23:03:58.543Z,16.85
2023-06-17T23:07:05.746Z,18.92
2023-06-17T23:10:14.802Z,20.17
2023-06-17T23:13:24.035Z,18.77
2023-06-17T23:16:31.591Z,17.52
2023-06-17T23:19:40.744Z,17.63
2023-06-17T23:22:46.819Z,16.80
2023-06-17T23:25:57.690Z,15.43
2023-06-17T23:29:07.362Z,16.92
2023-06-17T23:32:14.662Z,18.55
2023-06-17T23:35:20.475Z,18.70
2023-06-17T23:38:29.366Z,18.40
2023-06-17T23:41:36.992Z,16.90
2023-06-17T23:44:48.876Z,18.35
2023-06-17T23:47:58.501Z,16.67
2023-06-17T23:51:07.502Z,16.88
2023-06-17T23:54:15.152Z,19.13
2023-06-17T23:57:22.730Z,16.05
